createdAt,value
2023-04-09T04:47:39.022Z,17.15
2023-04-09T04:50:08.940Z,17.38
2023-04-09T04:52:39.000Z,18.85
2023-04-09T04:55:07.729Z,20.30
2023-04-09T04:57:35.714Z,17.70
2023-04-09T05:00:03.844Z,18.48
2023-04-09T05:02:31.855Z,18.40
2023-04-09T05:05:01.181Z,18.70
2023-04-09T05:07:29.160Z,18.05
2023-04-09T05:09:57.169Z,18.02
2023-04-09T05:12:25.334Z,17.88
2023-04-09T05:14:53.348Z,17.45
2023-04-09T05:17:21.276Z,16.52
2023-04-09T05:19:53.371Z,14.30
2023-04-09T05:22:22.640Z,15.27
2023-04-09T05:24:50.596Z,15.75
2023-04-09T05:27:19.418Z,15.55
2023-04-09T05:29:47.361Z,19.17
2023-04-09T05:32:16.079Z,19.92
2023-04-09T05:34:44.034Z,16.02
2023-04-09T05:37:12.043Z,14.77
2023-04-09T05:39:41.369Z,14.98
2023-04-09T05:42:09.262Z,14.15
2023-04-09T05:44:37.212Z,12.95
2023-04-09T05:47:05.487Z,13.27
2023-04-09T05:49:33.386Z,12.55
2023-04-09T05:52:01.320Z,12.52
2023-04-09T05:54:29.361Z,11.52
2023-04-09T05:56:58.665Z,12.07
2023-04-09T05:59:27.061Z,12.35
2023-04-09T06:01:55.242Z,10.93
2023-04-09T06:04:23.448Z,12.52
2023-04-09T06:06:51.541Z,12.07
2023-04-09T06:09:19.508Z,12.57
2023-04-09T06:11:47.480Z,12.70
2023-04-09T06:14:18.180Z,13.32
2023-04-09T06:16:46.163Z,15.00
2023-04-09T06:19:14.176Z,14.93
2023-04-09T06:21:42.454Z,13.88
2023-04-09T06:24:10.392Z,13.15
2023-04-09T06:26:38.469Z,13.55
2023-04-09T06:29:07.004Z,13.07
2023-04-09T06:31:36.491Z,12.90
2023-04-09T06:34:04.594Z,12.18
2023-04-09T06:36:34.654Z,11.65
2023-04-09T06:39:02.996Z,12.35
2023-04-09T06:41:31.091Z,12.70
2023-04-09T06:43:59.483Z,12.13
2023-04-09T14:02:35.497Z,6.15
2023-04-09T14:05:03.626Z,5.88
2023-04-09T14:07:32.132Z,6.40
2023-04-09T14:10:00.159Z,5.57
2023-04-09T14:12:28.307Z,6.47
2023-04-09T14:14:56.226Z,6.30
2023-04-09T14:17:24.234Z,6.07
2023-04-09T14:19:53.521Z,6.50
2023-04-09T14:22:21.492Z,6.25
2023-04-09T14:24:49.399Z,6.32
2023-04-09T14:27:17.599Z,6.45
2023-04-09T14:29:45.615Z,6.25
2023-04-09T14:32:13.694Z,6.20
2023-04-09T14:34:41.631Z,7.10
2023-04-09T14:37:10.891Z,6.45
2023-04-09T14:39:38.782Z,5.93
2023-04-09T14:42:06.725Z,5.45
2023-04-09T14:44:34.669Z,6.50
2023-04-09T14:47:02.765Z,6.93
2023-04-09T14:49:30.692Z,7.35
2023-04-09T14:51:59.512Z,7.18
2023-04-09T14:54:30.366Z,7.25
2023-04-09T14:56:58.357Z,7.32
2023-04-09T14:59:26.984Z,6.72
2023-04-09T15:01:55.003Z,6.30
2023-04-09T15:04:23.553Z,6.00
2023-04-09T15:06:51.605Z,6.47
2023-04-09T15:09:19.518Z,5.90
2023-04-09T15:11:48.860Z,5.88
2023-04-09T15:14:16.820Z,6.05
2023-04-09T15:16:44.866Z,6.85
2023-04-09T15:19:12.847Z,6.40
2023-04-09T15:21:40.774Z,6.38
2023-04-09T15:24:08.669Z,6.03
2023-04-09T15:26:36.708Z,6.60
2023-04-09T15:29:08.719Z,6.53
2023-04-09T15:31:37.610Z,5.95
2023-04-09T15:34:07.103Z,5.82
2023-04-09T15:36:35.656Z,6.40
2023-04-09T15:39:04.913Z,5.53
2023-04-09T15:41:33.774Z,5.90
2023-04-09T15:44:01.791Z,6.10
2023-04-09T15:46:31.628Z,5.78
2023-04-09T15:49:00.111Z,6.10
2023-04-09T15:51:28.095Z,5.72
2023-04-09T15:53:56.155Z,6.32
2023-04-09T15:56:24.154Z,6.38
2023-04-09T15:58:52.432Z,5.93
2023-04-09T16:01:20.683Z,6.03
2023-04-09T16:03:52.432Z,5.90
2023-04-09T16:06:21.148Z,5.95
2023-04-09T16:08:49.253Z,5.53
2023-04-09T16:11:17.296Z,5.88
2023-04-09T16:13:45.209Z,5.53
2023-04-09T16:16:13.303Z,5.05
2023-04-09T16:18:41.359Z,6.32
2023-04-09T16:21:10.697Z,5.72
2023-04-09T16:23:39.936Z,5.70
2023-04-09T16:26:08.264Z,5.95
2023-04-09T16:28:36.232Z,6.03
2023-04-09T16:31:04.157Z,6.00
2023-04-09T16:33:32.093Z,6.47
2023-04-09T16:36:00.396Z,5.80
2023-04-09T16:38:31.118Z,5.65
2023-04-09T16:40:59.172Z,5.93
2023-04-09T16:43:27.368Z,5.57
2023-04-09T16:45:55.523Z,5.82
2023-04-09T16:48:24.000Z,5.88
2023-04-09T16:50:52.175Z,5.70
2023-04-09T16:53:20.391Z,6.00
2023-04-09T16:55:50.047Z,5.30
2023-04-09T16:58:18.012Z,5.50
2023-04-09T17:00:47.200Z,5.70
2023-04-09T17:03:16.352Z,5.82
2023-04-09T17:05:49.240Z,6.07
2023-04-09T17:08:17.345Z,6.28
2023-04-09T17:10:45.635Z,6.00
2023-04-09T17:13:14.972Z,6.45
2023-04-09T17:15:43.136Z,6.30
2023-04-09T17:18:11.133Z,6.47
2023-04-09T17:20:39.126Z,6.18
2023-04-09T17:23:08.652Z,5.55
2023-04-09T17:25:37.010Z,5.82
2023-04-09T17:28:05.980Z,6.10
2023-04-09T17:30:36.195Z,5.72
2023-04-09T17:33:04.218Z,5.75
2023-04-09T17:35:32.702Z,5.78
2023-04-09T17:38:01.159Z,5.72
2023-04-09T17:40:29.274Z,6.93
2023-04-09T17:42:57.349Z,6.45
2023-04-09T17:45:25.406Z,6.80
2023-04-09T17:47:55.431Z,6.60
2023-04-09T17:50:23.509Z,6.65
2023-04-09T17:52:51.478Z,7.25
2023-04-09T17:55:19.473Z,7.22
2023-04-09T17:57:47.677Z,7.00
2023-04-09T18:00:16.706Z,6.82
2023-04-09T18:02:45.011Z,7.03
2023-04-09T18:05:14.637Z,7.60
2023-04-09T18:07:42.666Z,7.80
2023-04-09T18:10:11.406Z,8.27
2023-04-09T18:12:39.391Z,8.25
2023-04-09T18:15:08.471Z,8.20
2023-04-09T18:17:36.471Z,7.90
2023-04-09T18:20:04.705Z,8.10
2023-04-09T18:22:35.173Z,8.68
2023-04-09T18:25:03.356Z,8.00
2023-04-09T18:27:31.490Z,8.50
2023-04-09T18:29:59.454Z,8.27
2023-04-09T18:32:27.429Z,8.52
2023-04-09T18:34:55.468Z,9.35
2023-04-09T18:37:23.437Z,8.52
2023-04-09T18:39:52.718Z,9.07
2023-04-09T18:42:20.666Z,9.25
2023-04-09T18:44:48.794Z,8.57
2023-04-09T18:47:16.731Z,9.65
2023-04-09T18:49:44.703Z,9.52
2023-04-09T18:52:12.601Z,10.25
2023-04-09T18:54:40.597Z,9.43
2023-04-09T18:57:10.029Z,9.50
2023-04-09T18:59:40.040Z,9.70
2023-04-09T19:02:08.286Z,8.98
2023-04-09T19:04:39.692Z,8.85
2023-04-09T19:07:08.530Z,9.30
2023-04-09T19:09:37.345Z,9.05
2023-04-09T19:12:05.809Z,8.65
2023-04-09T19:14:36.471Z,9.13
2023-04-09T19:17:04.565Z,8.88
2023-04-09T19:19:32.579Z,9.15
2023-04-09T19:22:00.623Z,9.13
2023-04-09T19:24:28.682Z,9.20
2023-04-09T19:26:57.267Z,9.95
2023-04-09T19:29:25.300Z,8.75
2023-04-09T19:31:54.795Z,9.02
2023-04-09T19:34:22.967Z,8.90
2023-04-09T19:36:51.062Z,9.43
2023-04-09T19:39:19.512Z,9.30
2023-04-09T19:41:47.477Z,9.40
2023-04-09T19:44:15.608Z,10.43
2023-04-09T19:46:43.606Z,9.68
2023-04-09T19:49:13.047Z,10.43
2023-04-09T19:51:41.075Z,8.85
2023-04-09T19:54:10.826Z,9.60
2023-04-09T19:56:39.173Z,10.23
2023-04-09T19:59:07.328Z,9.32
